Time;durP1;ratioP1;P1;durP2;ratioP2;P2;SDS_P1;SDS_P2;PMS_P1;PMS_P2;Temp;Humidity;BMP_temperature;BMP_pressure;BME280_temperature;BME280_humidity;BME280_pressure;Samples;Min_cycle;Max_cycle;Signal;HPM_P1;HPM_P2
2021/07/05 00:02:18;;;;;;;8.10;2.67;;;;;;;16.86;93.83;100254.98;125951;1093;64262;-81
2021/07/05 00:04:45;;;;;;;4.57;2.87;;;;;;;16.85;93.57;100250.65;126001;1093;64218;-81
2021/07/05 00:07:12;;;;;;;6.60;2.73;;;;;;;16.85;93.76;100256.84;125620;1092;64310;-81
2021/07/05 00:09:41;;;;;;;8.40;3.30;;;;;;;16.85;93.14;100250.65;125394;1093;64381;-83
2021/07/05 00:12:10;;;;;;;6.00;3.30;;;;;;;16.85;93.19;100253.33;125517;1092;64293;-82
2021/07/05 00:14:37;;;;;;;5.90;2.57;;;;;;;16.83;92.97;100247.38;125537;1093;64257;-81
2021/07/05 00:17:04;;;;;;;5.97;2.67;;;;;;;16.80;92.80;100245.98;125584;1093;64242;-81
2021/07/05 00:19:31;;;;;;;5.97;3.00;;;;;;;16.78;93.09;100244.55;125369;1092;65214;-82
2021/07/05 00:21:58;;;;;;;10.25;3.75;;;;;;;16.76;92.99;100250.13;125435;1093;64216;-82
2021/07/05 00:24:26;;;;;;;5.80;2.80;;;;;;;16.73;92.97;100245.23;125755;1093;64201;-82
2021/07/05 00:26:53;;;;;;;5.27;3.00;;;;;;;16.67;92.82;100251.48;125713;1093;64264;-82
2021/07/05 00:29:20;;;;;;;6.17;2.60;;;;;;;16.62;93.35;100248.68;126320;1093;64149;-81
2021/07/05 00:31:47;;;;;;;13.40;3.47;;;;;;;16.57;93.22;100256.55;126168;1093;64288;-80
2021/07/05 00:34:14;;;;;;;3.70;2.67;;;;;;;16.52;93.24;100246.52;126409;1093;62970;-80
2021/07/05 00:36:41;;;;;;;7.10;2.57;;;;;;;16.47;93.32;100251.75;125510;1092;64358;-80
2021/07/05 00:39:08;;;;;;;5.07;2.27;;;;;;;16.43;93.24;100248.69;125647;1093;64355;-79
2021/07/05 00:41:35;;;;;;;5.93;2.73;;;;;;;16.42;93.18;100240.88;125732;1093;64286;-80
2021/07/05 00:44:03;;;;;;;4.10;2.30;;;;;;;16.40;93.08;100235.73;125376;1093;64209;-79
2021/07/05 00:46:30;;;;;;;8.80;2.63;;;;;;;16.40;93.10;100245.64;124984;1093;64377;-79
2021/07/05 00:48:58;;;;;;;6.10;2.60;;;;;;;16.39;93.07;100230.63;125905;1093;64307;-80
2021/07/05 00:51:25;;;;;;;5.60;2.53;;;;;;;16.38;93.29;100231.66;125484;1093;64609;-79
2021/07/05 00:53:54;;;;;;;5.37;2.40;;;;;;;16.36;93.26;100241.77;125404;1092;64380;-80
2021/07/05 00:56:22;;;;;;;5.20;2.07;;;;;;;16.34;93.39;100233.15;125323;1093;64891;-81
2021/07/05 00:58:50;;;;;;;4.97;2.33;;;;;;;16.32;93.37;100233.39;125101;1093;64329;-80
2021/07/05 01:01:17;;;;;;;7.30;2.63;;;;;;;16.30;93.48;100240.83;125025;1093;64326;-81
2021/07/05 01:03:45;;;;;;;9.25;2.65;;;;;;;16.28;94.25;100246.40;125201;1093;64289;-81
2021/07/05 01:06:12;;;;;;;6.30;2.73;;;;;;;16.26;93.93;100245.80;124895;1092;64301;-81
2021/07/05 01:08:39;;;;;;;4.63;3.27;;;;;;;16.25;94.48;100249.50;125134;1093;64277;-80
2021/07/05 01:11:06;;;;;;;5.73;2.93;;;;;;;16.24;94.34;100237.17;125231;1091;64386;-80
2021/07/05 01:13:33;;;;;;;7.57;2.50;;;;;;;16.24;94.51;100239.05;125144;1093;64336;-80
2021/07/05 01:16:02;;;;;;;4.67;2.87;;;;;;;16.22;94.46;100236.58;125163;1093;64406;-79
2021/07/05 01:18:29;;;;;;;3.30;2.40;;;;;;;16.20;94.33;100235.98;125294;1092;64279;-79
2021/07/05 01:21:01;;;;;;;4.80;2.57;;;;;;;16.19;94.77;100241.55;125155;1093;64310;-79
2021/07/05 01:23:29;;;;;;;6.10;3.00;;;;;;;16.18;95.26;100235.39;125340;1093;64280;-79
2021/07/05 01:25:56;;;;;;;9.03;3.20;;;;;;;16.16;94.76;100237.47;124919;1093;64320;-79
2021/07/05 01:28:24;;;;;;;6.03;3.00;;;;;;;16.15;94.88;100233.17;124994;1092;64273;-79
2021/07/05 01:30:51;;;;;;;7.90;3.40;;;;;;;16.14;95.25;100228.03;124940;1092;64654;-79
2021/07/05 01:33:18;;;;;;;7.45;4.10;;;;;;;16.13;94.64;100231.73;124938;1093;64309;-79
2021/07/05 01:35:45;;;;;;;8.40;3.30;;;;;;;16.12;94.81;100230.92;125045;1093;64368;-80
2021/07/05 01:38:23;;;;;;;4.97;3.60;;;;;;;16.12;94.94;100238.95;125110;1093;64681;-79
2021/07/05 01:41:01;;;;;;;6.90;3.65;;;;;;;16.12;94.81;100233.60;125097;1092;65017;-79
2021/07/05 01:43:29;;;;;;;8.37;3.60;;;;;;;16.11;94.99;100231.98;125070;1093;64291;-79
2021/07/05 01:45:56;;;;;;;6.83;3.83;;;;;;;16.09;94.88;100232.20;125130;1093;64362;-79
2021/07/05 01:48:24;;;;;;;9.27;4.07;;;;;;;16.05;94.97;100231.00;125070;1093;64288;-79
2021/07/05 01:50:54;;;;;;;14.03;5.07;;;;;;;16.03;94.92;100224.25;125147;1091;64750;-79
2021/07/05 01:53:21;;;;;;;11.10;4.83;;;;;;;16.00;95.33;100220.16;125192;1093;64365;-83
2021/07/05 01:55:48;;;;;;;9.87;5.17;;;;;;;16.00;95.34;100230.02;125059;1093;64747;-80
2021/07/05 01:58:16;;;;;;;7.33;4.77;;;;;;;15.97;95.21;100219.78;125085;1093;64942;-79
2021/07/05 02:00:46;;;;;;;11.97;5.23;;;;;;;15.96;95.46;100223.48;125102;1093;64300;-80
2021/07/05 02:03:17;;;;;;;9.23;5.67;;;;;;;15.94;95.50;100225.55;125042;1093;64313;-80
2021/07/05 02:05:45;;;;;;;8.43;5.63;;;;;;;15.93;95.33;100223.94;125081;1093;64246;-80
2021/07/05 02:08:14;;;;;;;8.70;5.20;;;;;;;15.90;95.22;100226.02;125146;1091;64400;-80
2021/07/05 02:10:43;;;;;;;9.77;6.70;;;;;;;15.89;95.12;100219.02;125120;1092;64252;-80
2021/07/05 02:13:18;;;;;;;17.27;7.07;;;;;;;15.88;95.18;100221.93;125086;1093;64343;-82
2021/07/05 02:15:45;;;;;;;;;;;;;;;15.85;95.27;100217.84;124943;1093;64393;-80
2021/07/05 02:18:14;;;;;;;11.63;6.30;;;;;;;15.82;94.97;100225.48;125135;1093;64348;-80
2021/07/05 02:20:41;;;;;;;10.57;6.43;;;;;;;15.78;95.11;100217.08;125029;1093;64301;-79
2021/07/05 02:23:12;;;;;;;10.67;6.03;;;;;;;15.76;95.18;100219.16;125045;1092;64466;-80
2021/07/05 02:25:40;;;;;;;8.30;5.27;;;;;;;15.72;95.33;100217.95;125315;1092;64278;-80
2021/07/05 02:28:11;;;;;;;8.37;5.03;;;;;;;15.69;94.33;100223.73;125034;1093;64284;-80
2021/07/05 02:30:40;;;;;;;5.80;3.37;;;;;;;15.68;94.46;100227.42;125062;1093;64259;-80
2021/07/05 02:33:08;;;;;;;8.47;5.03;;;;;;;15.66;94.16;100234.84;125041;1093;64285;-80
2021/07/05 02:35:36;;;;;;;8.40;4.40;;;;;;;15.60;94.34;100220.52;125067;1093;64198;-80
2021/07/05 02:38:08;;;;;;;5.07;2.97;;;;;;;15.62;93.58;100225.63;124999;1092;64722;-80
2021/07/05 02:40:39;;;;;;;8.17;4.10;;;;;;;15.60;92.86;100220.52;125112;1093;64348;-81
2021/07/05 02:43:06;;;;;;;5.97;3.93;;;;;;;15.60;93.16;100219.70;125349;1093;64259;-81
2021/07/05 02:45:35;;;;;;;8.30;4.20;;;;;;;15.59;93.33;100226.08;125108;1092;64635;-82
2021/07/05 02:48:06;;;;;;;7.65;4.25;;;;;;;15.58;92.84;100213.77;125030;1092;64335;-82
2021/07/05 02:50:33;;;;;;;8.03;4.27;;;;;;;15.57;93.01;100220.94;124898;1092;64295;-81
2021/07/05 02:53:02;;;;;;;6.30;3.60;;;;;;;15.54;93.28;100220.58;125085;1093;65076;-83
2021/07/05 02:55:29;;;;;;;6.53;4.63;;;;;;;15.51;93.33;100221.81;125077;1093;64320;-82
2021/07/05 02:57:56;;;;;;;10.90;3.70;;;;;;;15.47;93.11;100224.13;125049;1091;64211;-82
2021/07/05 03:00:27;;;;;;;6.30;4.10;;;;;;;15.44;92.90;100229.89;125027;1093;64290;-80
2021/07/05 03:02:54;;;;;;;4.90;3.25;;;;;;;15.42;93.05;100233.83;125200;1093;64282;-81
2021/07/05 03:05:24;;;;;;;6.87;3.50;;;;;;;15.40;93.41;100226.02;125138;1093;64285;-81
2021/07/05 03:07:52;;;;;;;8.20;3.40;;;;;;;15.37;93.46;100234.48;125109;1092;64342;-81
2021/07/05 03:10:25;;;;;;;6.53;4.20;;;;;;;15.34;93.50;100239.44;125087;1091;64240;-80
2021/07/05 03:12:53;;;;;;;3.47;2.13;;;;;;;15.31;93.22;100240.70;125191;1093;64304;-80
2021/07/05 03:15:21;;;;;;;5.17;1.80;;;;;;;15.28;93.62;100239.28;125094;1093;64432;-81
2021/07/05 03:17:54;;;;;;;10.33;2.93;;;;;;;15.26;93.68;100245.89;124871;1092;64303;-82
2021/07/05 03:20:24;;;;;;;9.17;3.00;;;;;;;15.22;93.70;100229.45;125143;1093;65363;-81
2021/07/05 03:22:53;;;;;;;18.65;4.35;;;;;;;15.22;93.82;100231.32;125042;1093;64310;-80
2021/07/05 03:25:22;;;;;;;9.57;3.23;;;;;;;15.20;93.93;100236.88;125342;1093;64490;-80
2021/07/05 03:27:50;;;;;;;7.40;2.97;;;;;;;15.20;93.95;100233.39;125129;1093;64298;-82
2021/07/05 03:30:19;;;;;;;5.17;2.93;;;;;;;15.17;94.21;100236.48;125072;1093;65469;-82
2021/07/05 03:32:47;;;;;;;4.15;3.20;;;;;;;15.14;94.13;100226.23;125294;1093;64304;-83
2021/07/05 03:35:16;;;;;;;6.57;2.97;;;;;;;15.15;93.48;100233.20;125247;1092;64307;-82
2021/07/05 03:37:44;;;;;;;4.70;3.03;;;;;;;15.13;93.61;100236.11;125258;1093;64230;-81
2021/07/05 03:40:13;;;;;;;6.47;3.40;;;;;;;15.13;93.71;100238.78;125063;1093;64288;-80
2021/07/05 03:42:44;;;;;;;6.83;3.33;;;;;;;15.11;93.53;100232.84;124968;1093;64297;-81
2021/07/05 03:45:14;;;;;;;8.77;3.17;;;;;;;15.11;93.97;100232.00;125058;1093;64964;-81
2021/07/05 03:47:41;;;;;;;9.65;3.65;;;;;;;15.08;93.71;100234.06;125043;1093;64288;-81
2021/07/05 03:50:10;;;;;;;6.70;3.15;;;;;;;15.08;94.20;100230.58;125015;1093;64214;-82
2021/07/05 03:52:38;;;;;;;10.85;3.05;;;;;;;15.07;93.63;100243.13;125356;1093;64387;-81
2021/07/05 03:55:08;;;;;;;6.90;2.70;;;;;;;15.07;93.66;100232.44;125160;1093;64259;-81
2021/07/05 03:57:35;;;;;;;8.23;3.07;;;;;;;15.07;93.48;100221.75;125223;1092;64333;-81
2021/07/05 04:00:06;;;;;;;6.67;2.43;;;;;;;15.07;93.59;100215.59;124990;1092;64335;-80
2021/07/05 04:02:33;;;;;;;4.40;1.90;;;;;;;15.08;93.48;100206.53;125026;1093;64288;-82
2021/07/05 04:05:01;;;;;;;5.93;2.60;;;;;;;15.11;93.49;100215.97;125017;1093;64405;-81
2021/07/05 04:07:27;;;;;;;5.17;2.93;;;;;;;15.11;93.15;100215.97;124987;1093;64687;-81
2021/07/05 04:09:56;;;;;;;6.00;2.60;;;;;;;15.12;93.09;100212.27;125062;1093;64288;-82
2021/07/05 04:12:24;;;;;;;7.57;3.10;;;;;;;15.13;92.91;100208.55;124997;1093;64386;-81
2021/07/05 04:14:51;;;;;;;5.43;2.67;;;;;;;15.17;93.16;100209.76;125006;1093;64332;-81
2021/07/05 04:17:18;;;;;;;5.37;2.90;;;;;;;15.20;92.80;100212.02;124939;1093;64346;-81
2021/07/05 04:19:46;;;;;;;6.20;2.70;;;;;;;15.22;92.59;100210.75;125038;1092;64285;-80
2021/07/05 04:22:18;;;;;;;18.73;3.63;;;;;;;15.27;92.48;100218.11;124880;1092;64243;-81
2021/07/05 04:24:46;;;;;;;3.77;2.60;;;;;;;15.32;92.53;100222.80;125146;1092;64233;-82
2021/07/05 04:27:15;;;;;;;4.63;2.90;;;;;;;15.36;92.41;100219.47;125122;1093;64243;-83
2021/07/05 04:29:43;;;;;;;5.47;1.97;;;;;;;15.40;91.88;100226.02;125021;1093;64419;-81
2021/07/05 04:32:10;;;;;;;4.77;2.47;;;;;;;15.43;92.03;100225.59;125146;1093;64345;-82
2021/07/05 04:34:48;;;;;;;3.67;2.30;;;;;;;15.47;91.89;100220.61;125019;1093;64262;-82
2021/07/05 04:37:16;;;;;;;4.80;2.53;;;;;;;15.52;91.66;100212.77;125068;1092;64298;-83
2021/07/05 04:39:43;;;;;;;4.90;2.57;;;;;;;15.58;91.86;100221.78;125032;1093;64301;-82
2021/07/05 04:42:10;;;;;;;3.10;2.10;;;;;;;15.63;91.38;100220.06;125057;1092;64445;-81
2021/07/05 04:44:37;;;;;;;4.43;1.80;;;;;;;15.66;91.39;100216.97;125027;1093;64313;-85
2021/07/05 04:47:04;;;;;;;6.43;2.90;;;;;;;15.67;91.23;100215.11;125016;1093;64762;-84
2021/07/05 04:49:32;;;;;;;5.50;2.67;;;;;;;15.69;91.67;100218.38;125029;1093;64208;-82
2021/07/05 04:51:59;;;;;;;5.05;2.55;;;;;;;15.72;91.45;100217.95;124979;1093;64285;-82
2021/07/05 04:54:26;;;;;;;5.83;2.47;;;;;;;15.77;91.32;100217.29;125400;1093;64426;-84
2021/07/05 04:56:53;;;;;;;3.15;2.30;;;;;;;15.80;90.92;100215.00;125364;1093;64282;-83
2021/07/05 04:59:21;;;;;;;4.17;2.00;;;;;;;15.85;91.06;100215.17;124983;1092;64282;-82
2021/07/05 05:01:48;;;;;;;3.93;1.93;;;;;;;15.87;90.96;100221.13;125015;1092;64387;-82
2021/07/05 05:04:15;;;;;;;3.53;1.97;;;;;;;15.89;91.10;100212.85;125025;1093;64258;-82
2021/07/05 05:06:43;;;;;;;5.90;1.97;;;;;;;15.97;91.00;100209.08;125053;1093;64503;-82
2021/07/05 05:09:11;;;;;;;6.70;2.20;;;;;;;16.04;91.16;100213.30;124974;1093;64308;-82
2021/07/05 05:11:38;;;;;;;4.60;1.90;;;;;;;16.08;90.90;100219.84;124984;1093;64396;-86
2021/07/05 05:14:06;;;;;;;6.07;1.67;;;;;;;16.12;90.69;100217.55;124894;1093;64976;-73
2021/07/05 05:16:33;;;;;;;4.77;1.77;;;;;;;16.15;90.44;100219.80;124885;1093;64288;-74
2021/07/05 05:19:00;;;;;;;4.30;1.67;;;;;;;16.16;90.60;100213.39;125024;1092;64984;-73
2021/07/05 05:21:27;;;;;;;6.50;2.20;;;;;;;16.18;90.36;100207.82;124858;1093;64227;-73
2021/07/05 05:23:54;;;;;;;5.13;2.43;;;;;;;16.22;90.14;100212.49;124881;1092;64243;-73
2021/07/05 05:26:21;;;;;;;5.60;2.03;;;;;;;16.27;90.32;100209.14;124836;1093;64985;-73
2021/07/05 05:28:48;;;;;;;4.30;1.73;;;;;;;16.28;90.00;100210.80;124878;1093;65450;-73
2021/07/05 05:31:15;;;;;;;3.60;1.63;;;;;;;16.30;90.17;100212.20;124879;1093;64376;-73
2021/07/05 05:33:42;;;;;;;3.13;1.50;;;;;;;16.34;89.90;100225.12;124862;1093;64307;-75
2021/07/05 05:36:10;;;;;;;4.53;1.60;;;;;;;16.33;89.85;100218.95;125079;1093;64324;-74
2021/07/05 05:38:37;;;;;;;5.53;1.70;;;;;;;16.33;90.08;100216.28;124840;1093;64284;-73
2021/07/05 05:41:05;;;;;;;6.97;2.10;;;;;;;16.33;89.84;100212.80;125017;1093;64403;-73
2021/07/05 05:43:32;;;;;;;4.17;1.67;;;;;;;16.35;89.93;100219.55;124873;1093;64872;-73
2021/07/05 05:46:02;;;;;;;3.30;2.37;;;;;;;16.38;89.83;100211.05;124850;1093;64261;-73
2021/07/05 05:48:31;;;;;;;4.37;1.73;;;;;;;16.43;89.82;100213.08;124871;1093;64275;-73
2021/07/05 05:50:58;;;;;;;4.30;2.10;;;;;;;16.43;89.58;100223.79;124729;1093;64255;-74
2021/07/05 05:53:26;;;;;;;3.37;1.63;;;;;;;16.44;89.23;100222.73;124885;1093;64323;-74
2021/07/05 05:55:53;;;;;;;5.33;1.93;;;;;;;16.43;89.03;100229.14;124860;1093;64416;-74
2021/07/05 05:58:20;;;;;;;4.95;2.00;;;;;;;16.47;89.40;100225.78;124867;1093;64657;-73
2021/07/05 06:00:47;;;;;;;4.03;1.83;;;;;;;16.51;88.96;100220.78;124887;1093;64293;-73
2021/07/05 06:03:14;;;;;;;6.93;1.80;;;;;;;16.51;89.19;100224.30;124880;1093;64399;-73
2021/07/05 06:05:41;;;;;;;5.00;1.70;;;;;;;16.62;89.29;100228.06;124899;1092;64278;-73
2021/07/05 06:08:08;;;;;;;6.17;1.90;;;;;;;16.77;88.42;100216.95;124907;1093;64281;-73
2021/07/05 06:10:35;;;;;;;3.07;1.60;;;;;;;16.93;88.23;100210.14;124837;1093;64766;-74
2021/07/05 06:13:03;;;;;;;4.60;2.00;;;;;;;17.06;87.41;100215.30;124861;1093;64249;-73
2021/07/05 06:15:30;;;;;;;3.53;1.50;;;;;;;17.21;87.73;100219.42;124893;1093;64307;-74
2021/07/05 06:18:00;;;;;;;5.93;2.33;;;;;;;17.34;86.85;100216.55;125058;1093;64300;-74
2021/07/05 06:20:29;;;;;;;1.93;1.37;;;;;;;17.48;84.43;100217.13;125742;1093;64837;-72
2021/07/05 06:23:08;;;;;;;6.23;2.27;;;;;;;17.58;84.56;100211.20;124920;1092;64175;-72
2021/07/05 06:25:35;;;;;;;7.13;3.83;;;;;;;17.66;82.59;100205.45;124797;1093;64450;-73
2021/07/05 06:28:04;;;;;;;5.33;2.40;;;;;;;17.73;81.95;100206.17;124875;1093;64284;-73
2021/07/05 06:30:31;;;;;;;21.17;15.03;;;;;;;17.76;82.10;100216.42;124961;1093;64354;-73
2021/07/05 06:32:58;;;;;;;7.83;4.50;;;;;;;17.83;82.17;100210.96;124744;1092;64448;-73
2021/07/05 06:35:25;;;;;;;3.93;2.57;;;;;;;17.90;82.51;100211.67;124879;1093;64258;-74
2021/07/05 06:37:52;;;;;;;6.90;4.33;;;;;;;17.98;81.48;100205.11;124902;1093;64285;-73
2021/07/05 06:40:20;;;;;;;25.33;18.30;;;;;;;18.10;80.83;100200.55;124917;1092;64287;-73
2021/07/05 06:42:47;;;;;;;3.50;1.40;;;;;;;18.18;79.73;100202.87;124875;1093;64273;-74
2021/07/05 06:45:14;;;;;;;4.33;1.77;;;;;;;18.28;80.20;100197.70;124829;1093;64348;-74
2021/07/05 06:47:41;;;;;;;5.70;2.23;;;;;;;18.44;78.61;100206.06;124742;1092;64293;-74
2021/07/05 06:50:09;;;;;;;8.33;4.53;;;;;;;18.54;79.15;100200.89;124796;1093;64303;-74
2021/07/05 06:52:36;;;;;;;4.07;1.60;;;;;;;18.61;78.42;100196.17;124899;1092;64967;-72
2021/07/05 06:55:05;;;;;;;2.73;1.27;;;;;;;18.72;78.98;100206.08;124862;1093;64303;-74
2021/07/05 06:57:33;;;;;;;2.53;1.33;;;;;;;18.83;77.56;100203.58;124807;1093;64314;-75
2021/07/05 07:00:06;;;;;;;7.43;5.13;;;;;;;18.92;75.79;100202.15;124983;1093;64288;-75
2021/07/05 07:02:33;;;;;;;3.80;2.27;;;;;;;19.00;76.53;100199.07;124941;1093;64285;-74
2021/07/05 07:05:01;;;;;;;3.10;2.07;;;;;;;19.12;75.08;100194.41;125087;1092;64307;-76
2021/07/05 07:07:28;;;;;;;3.27;1.20;;;;;;;19.23;74.19;100194.58;124885;1092;64285;-76
2021/07/05 07:09:55;;;;;;;2.70;1.57;;;;;;;19.39;74.27;100190.28;124670;1093;64333;-74
2021/07/05 07:12:22;;;;;;;1.77;1.10;;;;;;;19.49;71.56;100196.63;124942;1093;64233;-73
2021/07/05 07:14:49;;;;;;;1.83;1.40;;;;;;;19.59;71.93;100200.52;124911;1093;64302;-74
2021/07/05 07:17:25;;;;;;;3.10;2.23;;;;;;;19.67;71.98;100190.14;124945;1093;65481;-74
2021/07/05 07:19:52;;;;;;;28.67;23.03;;;;;;;19.80;70.84;100191.70;125070;1093;64304;-75
2021/07/05 07:22:19;;;;;;;3.77;2.10;;;;;;;19.95;71.41;100189.23;124934;1093;64352;-75
2021/07/05 07:24:47;;;;;;;4.70;1.47;;;;;;;20.11;70.10;100181.34;124919;1093;64517;-74
2021/07/05 07:27:15;;;;;;;2.43;1.40;;;;;;;20.22;69.25;100177.70;124914;1093;65144;-74
2021/07/05 07:29:42;;;;;;;9.90;6.00;;;;;;;20.35;68.59;100182.69;124727;1093;64300;-73
2021/07/05 07:32:09;;;;;;;10.13;8.20;;;;;;;20.41;66.74;100170.09;125353;1093;64827;-74
2021/07/05 07:34:36;;;;;;;3.37;1.43;;;;;;;20.48;68.16;100167.20;124845;1093;64262;-74
2021/07/05 07:37:06;;;;;;;2.20;1.20;;;;;;;20.57;67.78;100160.28;124909;1093;64384;-74
2021/07/05 07:39:43;;;;;;;36.03;26.47;;;;;;;20.70;66.24;100162.63;127237;1093;64290;-74
2021/07/05 07:42:10;;;;;;;2.60;1.90;;;;;;;20.84;65.88;100163.00;124905;1093;64261;-73
2021/07/05 07:44:37;;;;;;;12.80;9.53;;;;;;;20.90;65.31;100167.37;124893;1093;64307;-73
2021/07/05 07:47:06;;;;;;;7.87;4.73;;;;;;;20.95;66.13;100163.90;124711;1093;64374;-75
2021/07/05 07:49:33;;;;;;;1.90;1.27;;;;;;;20.93;65.48;100155.25;124888;1093;65448;-73
2021/07/05 07:52:01;;;;;;;2.20;1.25;;;;;;;20.90;65.36;100158.48;124762;1092;64301;-74
2021/07/05 07:54:28;;;;;;;2.63;1.20;;;;;;;20.96;66.93;100160.95;124862;1093;64345;-73
2021/07/05 07:56:56;;;;;;;4.00;2.47;;;;;;;21.04;65.39;100162.38;124781;1093;64278;-73
2021/07/05 07:59:23;;;;;;;2.83;1.80;;;;;;;21.14;64.85;100161.63;124971;1093;64391;-74
2021/07/05 08:01:50;;;;;;;2.07;1.00;;;;;;;21.21;65.14;100161.41;124877;1093;64297;-72
2021/07/05 08:04:17;;;;;;;2.47;1.00;;;;;;;21.29;64.26;100161.73;124767;1093;64170;-73
2021/07/05 08:06:44;;;;;;;2.23;1.00;;;;;;;21.39;65.29;100155.61;124938;1093;64281;-73
2021/07/05 08:09:12;;;;;;;3.97;2.33;;;;;;;21.44;64.05;100160.25;125082;1093;64288;-73
2021/07/05 08:11:39;;;;;;;2.43;0.83;;;;;;;21.49;64.16;100157.60;125525;1093;64419;-73
2021/07/05 08:14:08;;;;;;;5.40;2.33;;;;;;;21.54;64.78;100163.02;124895;1092;64302;-73
2021/07/05 08:16:36;;;;;;;1.43;1.00;;;;;;;21.56;65.40;100164.38;125009;1093;64371;-73
2021/07/05 08:19:03;;;;;;;1.63;1.03;;;;;;;21.63;65.14;100166.84;125526;1093;64211;-73
2021/07/05 08:21:30;;;;;;;2.33;1.30;;;;;;;21.62;63.52;100167.13;124901;1093;64339;-73
2021/07/05 08:23:57;;;;;;;2.73;1.20;;;;;;;21.66;64.53;100162.83;124855;1093;65474;-73
2021/07/05 08:26:24;;;;;;;1.60;1.00;;;;;;;21.62;62.73;100173.33;124911;1093;64230;-72
2021/07/05 08:28:51;;;;;;;2.60;1.30;;;;;;;21.54;63.72;100177.31;124895;1093;64677;-73
2021/07/05 08:31:19;;;;;;;2.03;1.20;;;;;;;21.44;63.41;100182.64;124948;1093;64240;-73
2021/07/05 08:33:47;;;;;;;17.50;13.73;;;;;;;21.42;63.77;100171.33;124930;1092;64300;-73
2021/07/05 08:36:15;;;;;;;7.90;5.53;;;;;;;21.41;63.56;100175.05;124924;1093;64246;-72
2021/07/05 08:38:42;;;;;;;4.20;2.83;;;;;;;21.37;63.85;100179.34;124910;1093;64336;-73
2021/07/05 08:41:09;;;;;;;14.63;9.77;;;;;;;21.33;63.61;100180.92;124937;1092;64304;-72
2021/07/05 08:43:42;;;;;;;4.37;1.70;;;;;;;21.42;63.69;100174.02;124848;1093;64307;-72
2021/07/05 08:46:11;;;;;;;21.73;15.63;;;;;;;21.46;63.04;100176.99;124959;1093;64308;-73
2021/07/05 08:48:40;;;;;;;3.30;1.60;;;;;;;21.50;63.11;100176.21;125120;1093;64304;-72
2021/07/05 08:51:11;;;;;;;2.17;1.00;;;;;;;21.53;63.11;100169.50;124996;1093;64381;-74
2021/07/05 08:53:40;;;;;;;3.50;2.90;;;;;;;21.54;62.93;100169.22;124957;1092;64202;-74
2021/07/05 08:56:08;;;;;;;6.10;4.05;;;;;;;21.54;62.56;100173.81;124850;1093;64363;-74
2021/07/05 08:58:36;;;;;;;64.40;54.80;;;;;;;21.56;63.55;100169.77;125002;1093;64335;-73
2021/07/05 09:01:04;;;;;;;15.30;12.10;;;;;;;21.66;63.71;100166.33;125088;1093;64389;-72
2021/07/05 09:03:31;;;;;;;2.30;1.30;;;;;;;21.69;63.24;100163.09;124798;1093;65475;-73
2021/07/05 09:06:15;;;;;;;4.37;2.73;;;;;;;21.65;62.46;100145.80;125079;1093;64262;-73
2021/07/05 09:08:59;;;;;;;1.93;1.20;;;;;;;21.65;62.63;100156.59;124962;1093;64251;-73
2021/07/05 09:11:46;;;;;;;3.10;1.10;;;;;;;21.66;63.68;100147.44;124798;1093;64279;-73
2021/07/05 09:14:23;;;;;;;1.97;1.20;;;;;;;21.61;63.30;100151.98;124985;1093;65402;-72
2021/07/05 09:16:52;;;;;;;2.00;1.17;;;;;;;21.52;63.27;100159.77;124989;1093;64374;-71
2021/07/05 09:19:26;;;;;;;2.27;1.10;;;;;;;21.46;64.49;100164.30;124962;1093;64361;-73
2021/07/05 09:21:55;;;;;;;1.50;1.00;;;;;;;21.41;65.35;100155.36;125223;1092;64387;-73
2021/07/05 09:24:45;;;;;;;1.90;1.30;;;;;;;21.29;64.77;100155.53;124867;1092;64208;-72
2021/07/05 09:27:18;;;;;;;3.20;1.10;;;;;;;21.23;65.81;100153.87;124727;1091;64297;-73
2021/07/05 09:29:46;;;;;;;1.70;1.10;;;;;;;21.19;65.85;100167.08;124742;1093;64384;-72
2021/07/05 09:32:23;;;;;;;6.10;3.83;;;;;;;21.16;66.08;100173.78;124743;1093;64362;-74
2021/07/05 09:34:50;;;;;;;3.97;1.93;;;;;;;21.05;66.79;100182.87;124961;1093;64284;-73
2021/07/05 09:37:23;;;;;;;2.77;1.70;;;;;;;20.95;66.98;100177.38;124828;1093;64219;-74
2021/07/05 09:40:10;;;;;;;1.70;1.20;;;;;;;20.84;67.25;100189.16;125150;1093;64318;-72
2021/07/05 09:42:41;;;;;;;1.83;1.00;;;;;;;20.72;68.27;100176.66;124903;1093;64304;-74
2021/07/05 09:45:12;;;;;;;1.33;0.90;;;;;;;20.78;68.20;100185.58;124910;1092;64265;-72
2021/07/05 09:47:39;;;;;;;2.93;1.40;;;;;;;20.76;68.37;100183.16;124885;1093;64330;-74
2021/07/05 09:50:20;;;;;;;1.90;0.93;;;;;;;20.70;68.22;100188.77;124869;1093;64263;-74
2021/07/05 09:52:47;;;;;;;2.60;1.60;;;;;;;20.54;68.24;100185.05;124662;1093;64744;-74
2021/07/05 09:55:17;;;;;;;2.10;1.35;;;;;;;20.40;69.15;100190.04;124571;1093;64291;-73
2021/07/05 09:57:44;;;;;;;7.23;4.30;;;;;;;20.29;70.09;100189.08;124845;1092;64554;-75
2021/07/05 10:00:17;;;;;;;2.77;1.10;;;;;;;20.23;70.19;100192.81;125250;1093;65150;-73
2021/07/05 10:03:04;;;;;;;10.67;6.47;;;;;;;20.22;69.27;100184.97;124937;1093;64215;-76
2021/07/05 10:05:33;;;;;;;19.73;14.67;;;;;;;20.17;69.91;100191.11;125004;1093;64288;-74
2021/07/05 10:08:09;;;;;;;5.13;2.90;;;;;;;20.16;69.45;100189.47;124916;1093;64945;-74
2021/07/05 10:10:40;;;;;;;21.33;15.93;;;;;;;20.20;70.34;100189.80;125674;1093;64293;-75
2021/07/05 10:13:10;;;;;;;2.63;1.57;;;;;;;20.22;70.26;100184.97;125140;1091;64284;-75
2021/07/05 10:15:39;;;;;;;6.80;3.80;;;;;;;20.15;70.24;100198.63;124960;1093;64358;-73
2021/07/05 10:18:06;;;;;;;1.60;1.20;;;;;;;19.94;70.97;100197.55;124853;1093;64428;-74
2021/07/05 10:20:37;;;;;;;2.10;1.40;;;;;;;19.80;73.21;100212.42;124882;1092;64642;-73
2021/07/05 10:23:11;;;;;;;6.23;2.00;;;;;;;19.51;76.88;100228.67;124887;1093;64386;-73
2021/07/05 10:25:42;;;;;;;3.87;1.50;;;;;;;18.83;81.67;100236.67;124974;1092;64332;-77
2021/07/05 10:28:09;;;;;;;3.57;1.40;;;;;;;18.13;83.21;100240.36;124963;1093;64330;-76
2021/07/05 10:30:39;;;;;;;8.57;4.90;;;;;;;17.58;85.86;100236.14;124843;1092;64412;-75
2021/07/05 10:33:06;;;;;;;4.57;1.10;;;;;;;17.24;88.00;100230.50;125793;1093;64307;-73
2021/07/05 10:35:33;;;;;;;21.90;11.57;;;;;;;16.97;89.58;100227.41;124931;1093;64287;-74
2021/07/05 10:38:22;;;;;;;2.27;1.33;;;;;;;16.76;90.54;100239.41;124815;1093;64288;-73
2021/07/05 10:40:56;;;;;;;5.40;3.07;;;;;;;16.59;92.99;100247.25;124870;1093;64211;-74
2021/07/05 10:43:46;;;;;;;97.87;43.80;;;;;;;16.58;93.68;100253.66;124553;1093;65064;-74
2021/07/05 10:46:45;;;;;;;9.70;6.43;;;;;;;16.63;94.66;100239.59;124878;1092;65694;-72
2021/07/05 10:49:24;;;;;;;16.97;9.03;;;;;;;16.69;94.96;100242.18;124928;1093;64291;-73
2021/07/05 10:51:51;;;;;;;5.13;3.33;;;;;;;16.81;95.71;100247.63;124825;1093;64424;-73
2021/07/05 10:54:52;;;;;;;7.67;3.70;;;;;;;16.88;94.03;100240.31;124863;1093;64304;-74
2021/07/05 10:57:22;;;;;;;9.73;6.33;;;;;;;16.95;93.04;100237.53;124921;1093;64381;-74
2021/07/05 10:59:51;;;;;;;10.33;5.77;;;;;;;17.01;92.85;100231.27;125163;1093;64297;-76
2021/07/05 11:02:41;;;;;;;6.95;5.30;;;;;;;17.07;91.89;100245.62;124844;1093;64287;-73
2021/07/05 11:05:28;;;;;;;6.80;5.13;;;;;;;17.19;92.97;100250.99;124864;1093;64362;-72
2021/07/05 11:08:15;;;;;;;9.20;6.17;;;;;;;17.27;93.28;100250.66;124935;1092;64205;-73
2021/07/05 11:10:44;;;;;;;7.33;5.43;;;;;;;17.35;91.97;100257.57;124720;1093;64636;-74
2021/07/05 11:13:11;;;;;;;8.73;7.53;;;;;;;17.41;92.06;100256.66;124867;1093;64281;-72
2021/07/05 11:15:54;;;;;;;8.37;6.80;;;;;;;17.44;91.89;100251.63;124901;1093;64313;-72
2021/07/05 11:18:42;;;;;;;9.20;7.33;;;;;;;17.51;92.52;100257.72;124957;1093;64303;-73
2021/07/05 11:21:29;;;;;;;15.60;6.60;;;;;;;17.55;92.14;100259.92;124850;1093;64236;-73
2021/07/05 11:24:00;;;;;;;10.40;6.77;;;;;;;17.56;91.42;100264.25;124768;1093;64265;-73
2021/07/05 11:26:39;;;;;;;10.47;6.63;;;;;;;17.63;91.55;100264.95;124867;1093;64403;-73
2021/07/05 11:29:15;;;;;;;6.93;6.23;;;;;;;17.73;90.98;100265.19;124971;1093;64293;-73